Time;durP1;ratioP1;P1;durP2;ratioP2;P2;SDS_P1;SDS_P2;PMS_P1;PMS_P2;Temp;Humidity;BMP_temperature;BMP_pressure;BME280_temperature;BME280_humidity;BME280_pressure;Samples;Min_cycle;Max_cycle;Signal;HPM_P1;HPM_P2
2023/12/01 00:00:41;;;;;;;33.28;14.07;;;;;;;-0.47;100.00;100502.16;6085332;19;20013;-74
2023/12/01 00:02:46;;;;;;;40.50;14.52;;;;;;;-0.52;100.00;100504.72;6083019;19;20046;-72
2023/12/01 00:04:51;;;;;;;24.83;11.73;;;;;;;-0.51;100.00;100503.00;6082744;19;20008;-74
2023/12/01 00:06:56;;;;;;;35.72;14.85;;;;;;;-0.52;100.00;100509.91;6085104;19;20126;-74
2023/12/01 00:08:58;;;;;;;31.80;12.93;;;;;;;-0.52;100.00;100503.88;6086799;19;20025;-74
2023/12/01 00:11:07;;;;;;;32.45;15.00;;;;;;;-0.56;100.00;100515.06;6087269;19;20022;-74
2023/12/01 00:13:12;;;;;;;32.80;15.38;;;;;;;-0.63;100.00;100514.22;6087054;19;20014;-73
2023/12/01 00:15:17;;;;;;;24.40;11.68;;;;;;;-0.58;100.00;100511.59;6085244;19;20018;-74
2023/12/01 00:17:22;;;;;;;43.60;14.82;;;;;;;-0.61;100.00;100515.03;6083610;19;20003;-73
2023/12/01 00:19:30;;;;;;;43.28;15.25;;;;;;;-0.60;100.00;100518.50;6082206;19;20023;-73
2023/12/01 00:21:35;;;;;;;32.53;16.10;;;;;;;-0.62;100.00;100526.25;6084288;19;20007;-72
2023/12/01 00:23:40;;;;;;;42.58;16.45;;;;;;;-0.50;100.00;100521.09;6084880;19;20356;-75
2023/12/01 00:25:45;;;;;;;37.00;17.02;;;;;;;-0.47;100.00;100528.81;6084199;19;20006;-75
2023/12/01 00:27:53;;;;;;;44.20;17.05;;;;;;;-0.45;100.00;100524.53;6086019;19;20019;-76
2023/12/01 00:29:59;;;;;;;39.50;15.25;;;;;;;-0.48;100.00;100521.06;6079958;19;20017;-73
2023/12/01 00:32:04;;;;;;;49.35;21.25;;;;;;;-0.42;100.00;100522.78;6086392;19;20047;-73
2023/12/01 00:34:09;;;;;;;38.40;13.68;;;;;;;-0.40;100.00;100521.06;6084753;19;20018;-73
2023/12/01 00:36:14;;;;;;;39.67;20.05;;;;;;;-0.45;100.00;100537.44;6085134;19;20010;-75
2023/12/01 00:38:19;;;;;;;43.45;19.00;;;;;;;-0.45;100.00;100540.00;6084899;19;20042;-75
2023/12/01 00:40:24;;;;;;;45.25;17.15;;;;;;;-0.54;100.00;100540.00;6086075;19;20007;-75
2023/12/01 00:42:27;;;;;;;44.28;20.02;;;;;;;-0.63;100.00;100542.59;6085460;19;20059;-73
2023/12/01 00:44:34;;;;;;;45.20;19.40;;;;;;;-0.68;100.00;100536.56;6086392;19;20386;-73
2023/12/01 00:46:42;;;;;;;52.47;19.15;;;;;;;-0.74;100.00;100539.13;6085877;19;20038;-74
2023/12/01 00:48:47;;;;;;;33.55;16.45;;;;;;;-0.71;100.00;100536.53;6085354;19;20032;-74
2023/12/01 00:50:53;;;;;;;32.78;12.02;;;;;;;-0.78;100.00;100550.31;6083147;19;20011;-74
2023/12/01 00:53:00;;;;;;;45.05;17.50;;;;;;;-0.82;100.00;100548.56;6082279;19;20043;-75
2023/12/01 00:55:04;;;;;;;54.70;18.02;;;;;;;-0.77;100.00;100557.19;6084324;19;20017;-74
2023/12/01 00:57:09;;;;;;;42.17;16.67;;;;;;;-0.75;100.00;100553.75;6085412;19;20086;-73
2023/12/01 00:59:14;;;;;;;37.03;16.15;;;;;;;-0.76;100.00;100557.19;6081990;19;20089;-75
2023/12/01 01:01:22;;;;;;;45.58;19.50;;;;;;;-0.78;100.00;100552.91;6083659;19;20006;-75
2023/12/01 01:03:30;;;;;;;36.58;14.07;;;;;;;-0.74;100.00;100557.19;6084310;19;20535;-75
2023/12/01 01:05:35;;;;;;;42.13;19.52;;;;;;;-0.86;100.00;100567.50;6082427;19;20010;-72
2023/12/01 01:07:38;;;;;;;41.17;14.65;;;;;;;-0.80;100.00;100555.47;6081613;19;20006;-74
2023/12/01 01:09:43;;;;;;;36.88;16.52;;;;;;;-0.73;100.00;100558.94;6082032;19;20027;-74
2023/12/01 01:11:48;;;;;;;38.90;17.65;;;;;;;-0.77;100.00;100570.09;6084347;19;20426;-74
2023/12/01 01:13:50;;;;;;;41.78;16.48;;;;;;;-0.74;100.00;100562.34;6082312;19;20031;-74
2023/12/01 01:15:55;;;;;;;33.83;16.35;;;;;;;-0.72;100.00;100570.94;6081724;19;20014;-73
2023/12/01 01:18:03;;;;;;;38.88;17.60;;;;;;;-0.78;100.00;100579.56;6082365;19;20430;-74
2023/12/01 01:20:13;;;;;;;38.42;18.27;;;;;;;-0.85;100.00;100575.22;6084845;19;20006;-75
2023/12/01 01:22:18;;;;;;;39.45;16.23;;;;;;;-0.92;100.00;100578.69;6082607;19;20021;-75
2023/12/01 01:24:23;;;;;;;46.03;15.45;;;;;;;-0.95;100.00;100579.53;6082274;19;20038;-74
2023/12/01 01:26:28;;;;;;;35.78;13.70;;;;;;;-1.00;100.00;100591.56;6084109;19;20009;-74
2023/12/01 01:28:33;;;;;;;37.05;16.20;;;;;;;-1.17;100.00;100588.91;6082476;19;20006;-73
2023/12/01 01:30:38;;;;;;;37.28;15.40;;;;;;;-1.14;100.00;100590.63;6083471;19;20006;-73
2023/12/01 01:32:43;;;;;;;36.22;14.50;;;;;;;-1.14;100.00;100594.06;6085310;19;20006;-75
2023/12/01 01:34:51;;;;;;;27.50;15.05;;;;;;;-1.09;100.00;100596.66;6083656;19;20027;-75
2023/12/01 01:36:56;;;;;;;24.20;11.48;;;;;;;-1.12;100.00;100589.78;6079266;19;20483;-74
2023/12/01 01:39:02;;;;;;;27.60;12.73;;;;;;;-1.14;100.00;100596.66;6082656;19;20499;-73
2023/12/01 01:41:08;;;;;;;32.72;15.38;;;;;;;-1.13;100.00;100600.09;6079620;19;20003;-72
2023/12/01 01:43:21;;;;;;;32.15;13.98;;;;;;;-1.20;100.00;100603.50;6085457;19;20043;-74
2023/12/01 01:45:27;;;;;;;34.63;10.68;;;;;;;-1.29;100.00;100614.66;6084343;19;21958;-74
2023/12/01 01:47:32;;;;;;;29.70;11.07;;;;;;;-1.35;100.00;100612.03;6084124;19;20544;-74
2023/12/01 01:49:37;;;;;;;32.03;14.98;;;;;;;-1.31;100.00;100615.50;6084435;19;20042;-73
2023/12/01 01:51:46;;;;;;;22.52;10.02;;;;;;;-1.38;100.00;100612.03;6082313;19;20233;-74
2023/12/01 01:53:49;;;;;;;27.10;12.02;;;;;;;-1.41;100.00;100620.59;6075898;19;20028;-73
2023/12/01 01:55:54;;;;;;;24.02;8.25;;;;;;;-1.49;100.00;100619.72;6081968;19;20772;-73
2023/12/01 01:58:01;;;;;;;25.10;13.90;;;;;;;-1.49;100.00;100622.28;6084076;19;20471;-73
2023/12/01 02:00:16;;;;;;;32.83;12.57;;;;;;;-1.52;100.00;100619.69;6084126;19;20260;-74
2023/12/01 02:02:22;;;;;;;38.65;15.07;;;;;;;-1.56;100.00;100617.94;6082583;19;20010;-74
2023/12/01 02:04:28;;;;;;;31.17;9.75;;;;;;;-1.59;100.00;100612.78;6084563;19;20309;-74
2023/12/01 02:06:33;;;;;;;25.05;10.32;;;;;;;-1.61;100.00;100617.06;6084537;19;20019;-74
2023/12/01 02:08:44;;;;;;;22.55;7.68;;;;;;;-1.59;100.00;100618.78;6083126;19;20097;-74
2023/12/01 02:10:46;;;;;;;28.90;9.80;;;;;;;-1.59;100.00;100628.25;6085178;19;20471;-76
2023/12/01 02:12:51;;;;;;;23.85;11.63;;;;;;;-1.56;100.00;100630.81;6080959;19;20240;-74
2023/12/01 02:14:56;;;;;;;20.20;10.20;;;;;;;-1.57;100.00;100621.38;6085942;19;20628;-74
2023/12/01 02:17:01;;;;;;;22.02;10.63;;;;;;;-1.53;100.00;100622.25;6084842;19;20014;-75
2023/12/01 02:19:06;;;;;;;24.52;12.65;;;;;;;-1.53;100.00;100625.69;6081425;19;20014;-74
2023/12/01 02:21:11;;;;;;;20.80;8.68;;;;;;;-1.51;100.00;100618.81;6078864;19;20014;-75
2023/12/01 02:23:19;;;;;;;24.70;10.77;;;;;;;-1.52;100.00;100616.25;6084567;19;20014;-75
2023/12/01 02:25:27;;;;;;;29.27;13.50;;;;;;;-1.53;100.00;100625.69;6082194;19;20011;-73
2023/12/01 02:27:32;;;;;;;28.38;11.68;;;;;;;-1.41;100.00;100633.50;6083379;19;20008;-75
2023/12/01 02:29:37;;;;;;;17.33;8.93;;;;;;;-1.54;100.00;100623.97;6082291;19;20046;-74
2023/12/01 02:31:42;;;;;;;27.98;10.77;;;;;;;-1.47;100.00;100630.88;6082273;19;20020;-74
2023/12/01 02:33:45;;;;;;;23.30;10.18;;;;;;;-1.51;100.00;100631.72;6083649;19;20038;-74
2023/12/01 02:35:50;;;;;;;;;;;;;;;-1.49;100.00;100621.44;6081352;19;20006;-74
2023/12/01 02:37:54;;;;;;;22.98;13.70;;;;;;;-1.43;100.00;100632.63;6080435;19;19919;-74
2023/12/01 02:40:05;;;;;;;22.60;9.75;;;;;;;-1.40;100.00;100626.63;6082220;19;20446;-75
2023/12/01 02:42:20;;;;;;;28.65;11.88;;;;;;;-1.37;100.00;100631.78;6080178;19;20007;-74
2023/12/01 02:44:25;;;;;;;19.73;9.27;;;;;;;-1.43;100.00;100624.88;6081864;19;20074;-74
2023/12/01 02:46:30;;;;;;;20.35;11.95;;;;;;;-1.39;100.00;100631.78;6083465;19;20398;-74
2023/12/01 02:48:35;;;;;;;32.38;12.18;;;;;;;-1.47;100.00;100630.88;6084097;19;20009;-74
2023/12/01 02:50:38;;;;;;;26.08;9.10;;;;;;;-1.50;100.00;100628.31;6083071;19;20014;-75
2023/12/01 02:52:44;;;;;;;19.33;8.50;;;;;;;-1.57;100.00;100624.81;6078367;19;20007;-76
2023/12/01 02:54:48;;;;;;;20.88;9.50;;;;;;;-1.49;100.00;100627.44;6077499;19;20038;-74
2023/12/01 02:56:56;;;;;;;35.80;11.00;;;;;;;-1.49;100.00;100635.16;6081322;19;20361;-74
2023/12/01 02:59:01;;;;;;;33.90;11.73;;;;;;;-1.43;100.00;100627.47;6081857;19;20329;-74
2023/12/01 03:01:06;;;;;;;23.48;10.40;;;;;;;-1.42;100.00;100624.03;6080825;19;20027;-75
2023/12/01 03:03:13;;;;;;;24.17;10.50;;;;;;;-1.39;100.00;100629.22;6081041;19;20011;-74
2023/12/01 03:05:18;;;;;;;21.75;11.90;;;;;;;-1.33;100.00;100634.38;6079030;19;20075;-74
2023/12/01 03:07:23;;;;;;;31.02;11.07;;;;;;;-1.29;100.00;100621.50;6081747;19;20015;-74
2023/12/01 03:09:28;;;;;;;33.58;11.77;;;;;;;-1.29;100.00;100627.56;6081689;19;20444;-74
2023/12/01 03:11:33;;;;;;;28.25;12.40;;;;;;;-1.34;100.00;100621.50;6078549;19;20048;-74
2023/12/01 03:13:38;;;;;;;23.15;11.88;;;;;;;-1.33;100.00;100611.19;6080180;19;20012;-75
2023/12/01 03:15:43;;;;;;;29.48;10.88;;;;;;;-1.29;100.00;100616.34;6080133;19;20035;-74
2023/12/01 03:17:49;;;;;;;38.33;10.07;;;;;;;-1.33;100.00;100621.50;6080847;19;20448;-74
2023/12/01 03:19:56;;;;;;;22.80;11.05;;;;;;;-1.32;100.00;100619.78;6080662;19;20421;-75
2023/12/01 03:22:01;;;;;;;22.02;12.18;;;;;;;-1.46;100.00;100626.59;6080379;19;20018;-75
2023/12/01 03:24:04;;;;;;;27.38;11.25;;;;;;;-1.46;100.00;100637.75;6083338;19;20043;-73
2023/12/01 03:26:10;;;;;;;23.52;12.27;;;;;;;-1.49;100.00;100640.31;6081790;19;20006;-74
2023/12/01 03:28:15;;;;;;;24.83;11.23;;;;;;;-1.51;100.00;100634.28;6079678;19;20023;-76
2023/12/01 03:30:20;;;;;;;20.10;9.50;;;;;;;-1.51;100.00;100633.44;6081471;19;20023;-74
2023/12/01 03:32:25;;;;;;;16.45;7.63;;;;;;;-1.62;100.00;100641.09;6078705;19;20007;-73
2023/12/01 03:34:30;;;;;;;22.50;10.70;;;;;;;-1.63;100.00;100631.66;6076732;19;20014;-74
2023/12/01 03:36:33;;;;;;;20.38;8.73;;;;;;;-1.57;100.00;100629.13;6076065;19;20696;-75
2023/12/01 03:38:38;;;;;;;16.05;9.13;;;;;;;-1.55;100.00;100635.16;6079164;19;20010;-74
2023/12/01 03:40:44;;;;;;;27.40;11.07;;;;;;;-1.53;100.00;100640.28;6084180;19;20783;-76
2023/12/01 03:42:52;;;;;;;18.13;7.82;;;;;;;-1.50;100.00;100635.16;6084540;19;20010;-73
2023/12/01 03:44:57;;;;;;;21.25;10.32;;;;;;;-1.46;100.00;100650.63;6088517;19;20373;-75
2023/12/01 03:47:08;;;;;;;23.30;9.30;;;;;;;-1.43;100.00;100655.81;6084192;19;20031;-76
2023/12/01 03:49:13;;;;;;;20.40;8.75;;;;;;;-1.42;100.00;100649.81;6079680;19;20011;-77
2023/12/01 03:51:20;;;;;;;18.70;8.68;;;;;;;-1.50;100.00;100651.50;6086846;19;20006;-74
2023/12/01 03:53:25;;;;;;;20.02;8.73;;;;;;;-1.50;100.00;100656.66;6083477;19;20598;-75
2023/12/01 03:55:30;;;;;;;14.07;8.35;;;;;;;-1.53;100.00;100651.44;6082762;19;20017;-75
2023/12/01 03:57:33;;;;;;;20.08;8.80;;;;;;;-1.49;100.00;100650.63;6084897;19;20039;-74
2023/12/01 03:59:38;;;;;;;14.85;6.55;;;;;;;-1.50;100.00;100656.66;6082739;19;20463;-74
2023/12/01 04:01:43;;;;;;;21.40;9.57;;;;;;;-1.47;100.00;100666.97;6084820;19;20010;-74
2023/12/01 04:03:50;;;;;;;19.17;8.35;;;;;;;-1.53;100.00;100658.31;6087725;19;20021;-75
2023/12/01 04:05:53;;;;;;;25.52;8.63;;;;;;;-1.49;100.00;100660.94;6086389;19;20018;-74
2023/12/01 04:07:58;;;;;;;16.75;7.70;;;;;;;-1.46;100.00;100662.66;6087700;19;20015;-74
2023/12/01 04:10:10;;;;;;;25.83;9.63;;;;;;;-1.57;100.00;100662.63;6087170;19;20088;-74
2023/12/01 04:12:15;;;;;;;24.50;10.70;;;;;;;-1.57;100.00;100666.03;6082741;19;20034;-76
2023/12/01 04:14:20;;;;;;;18.98;10.02;;;;;;;-1.52;100.00;100673.81;6086835;19;20168;-75
2023/12/01 04:16:24;;;;;;;33.30;11.27;;;;;;;-1.49;100.00;100668.66;6086629;19;20387;-74
2023/12/01 04:18:30;;;;;;;24.20;9.25;;;;;;;-1.50;100.00;100669.53;6085626;19;20021;-75
2023/12/01 04:20:38;;;;;;;18.25;8.95;;;;;;;-1.61;100.00;100666.00;6087375;19;20014;-75
2023/12/01 04:22:41;;;;;;;17.05;9.13;;;;;;;-1.54;100.00;100675.50;6086248;19;20014;-75
2023/12/01 04:24:46;;;;;;;32.63;9.80;;;;;;;-1.57;100.00;100675.50;6087362;19;20018;-75
2023/12/01 04:26:53;;;;;;;22.83;10.75;;;;;;;-1.57;100.00;100678.06;6086260;19;20011;-75
2023/12/01 04:28:59;;;;;;;20.00;9.05;;;;;;;-1.55;100.00;100686.69;6087463;19;20527;-75
2023/12/01 04:31:05;;;;;;;23.33;7.85;;;;;;;-1.54;100.00;100685.81;6087212;19;20160;-74
2023/12/01 04:33:17;;;;;;;32.28;14.25;;;;;;;-1.55;100.00;100687.53;6087063;19;20007;-75
2023/12/01 04:35:20;;;;;;;23.02;9.75;;;;;;;-1.44;100.00;100700.50;6088088;19;20480;-75
2023/12/01 04:37:27;;;;;;;18.25;7.93;;;;;;;-1.42;100.00;100693.63;6080975;19;20436;-75
2023/12/01 04:39:33;;;;;;;30.85;10.10;;;;;;;-1.51;100.00;100690.13;6085672;19;20283;-79
2023/12/01 04:41:38;;;;;;;16.52;7.90;;;;;;;-1.49;100.00;100697.00;6085966;19;20067;-76
2023/12/01 04:43:43;;;;;;;20.83;10.07;;;;;;;-1.48;100.00;100698.72;6085509;19;20381;-76
2023/12/01 04:45:48;;;;;;;17.23;6.88;;;;;;;-1.50;100.00;100697.88;6085788;19;20014;-74
2023/12/01 04:47:58;;;;;;;22.35;11.25;;;;;;;-1.42;100.00;100698.78;6084199;19;20007;-74
2023/12/01 04:50:00;;;;;;;19.02;9.68;;;;;;;-1.39;100.00;100703.09;6085015;19;20023;-74
2023/12/01 04:52:05;;;;;;;22.80;9.68;;;;;;;-1.38;100.00;100703.09;6080787;19;20011;-75
2023/12/01 04:54:13;;;;;;;17.55;7.50;;;;;;;-1.30;100.00;100715.16;6082984;19;20038;-74
2023/12/01 04:56:18;;;;;;;21.35;9.18;;;;;;;-1.30;100.00;100708.28;6081491;19;20070;-74
2023/12/01 04:58:25;;;;;;;14.13;7.72;;;;;;;-1.26;100.00;100716.91;6085042;19;20498;-74
2023/12/01 05:00:27;;;;;;;24.38;8.80;;;;;;;-1.21;100.00;100716.09;6083796;19;20010;-75
2023/12/01 05:02:33;;;;;;;27.42;9.07;;;;;;;-1.19;100.00;100711.78;6085676;19;20363;-75
2023/12/01 05:04:36;;;;;;;29.65;9.30;;;;;;;-1.16;100.00;100714.41;6082645;19;20035;-75
2023/12/01 05:06:41;;;;;;;24.00;7.35;;;;;;;-1.22;100.00;100718.66;6086637;19;20011;-75
2023/12/01 05:08:46;;;;;;;23.10;10.00;;;;;;;-1.19;100.00;100716.94;6085436;19;20007;-75
2023/12/01 05:10:54;;;;;;;20.55;9.93;;;;;;;-1.18;100.00;100710.94;6086467;19;20533;-75
2023/12/01 05:13:01;;;;;;;20.35;9.63;;;;;;;-1.13;100.00;100713.56;6083340;19;20039;-75
2023/12/01 05:15:05;;;;;;;19.48;8.52;;;;;;;-1.13;100.00;100723.88;6087238;19;20021;-77
2023/12/01 05:17:11;;;;;;;28.73;10.48;;;;;;;-1.15;100.00;100731.59;6086000;19;20349;-76
2023/12/01 05:19:17;;;;;;;29.25;8.25;;;;;;;-1.13;100.00;100727.31;6086355;19;20114;-75
2023/12/01 05:21:22;;;;;;;17.05;6.47;;;;;;;-1.10;100.00;100731.63;6085877;19;20487;-74
2023/12/01 05:23:30;;;;;;;24.45;9.27;;;;;;;-1.10;100.00;100731.63;6085537;19;20014;-74
2023/12/01 05:25:36;;;;;;;31.42;9.80;;;;;;;-1.11;100.00;100727.31;6086608;19;20574;-74
2023/12/01 05:27:51;;;;;;;20.50;8.68;;;;;;;-1.08;100.00;100729.88;6084581;19;20014;-76
2023/12/01 05:29:54;;;;;;;14.10;7.67;;;;;;;-1.06;100.00;100729.91;6085784;19;20006;-75
2023/12/01 05:31:59;;;;;;;19.35;6.53;;;;;;;-1.04;100.00;100730.78;6081907;19;20254;-76
2023/12/01 05:34:05;;;;;;;23.98;9.50;;;;;;;-1.01;100.00;100739.38;6085392;19;20697;-76
2023/12/01 05:36:14;;;;;;;24.15;11.65;;;;;;;-0.94;100.00;100729.97;6084423;19;20013;-76
2023/12/01 05:38:19;;;;;;;20.48;7.90;;;;;;;-0.97;100.00;100733.41;6085799;19;20043;-74
2023/12/01 05:40:24;;;;;;;24.55;9.73;;;;;;;-0.93;100.00;100731.69;6084466;19;20007;-74
2023/12/01 05:42:29;;;;;;;26.15;8.75;;;;;;;-0.93;100.00;100735.13;6082701;19;20090;-75
2023/12/01 05:44:41;;;;;;;23.98;10.48;;;;;;;-0.93;100.00;100736.84;6082669;19;20010;-74
2023/12/01 05:46:47;;;;;;;25.42;12.23;;;;;;;-0.95;100.00;100743.72;6083813;19;20405;-74
2023/12/01 05:48:53;;;;;;;22.58;10.93;;;;;;;-0.87;100.00;100747.19;6083199;19;20011;-75
2023/12/01 05:50:58;;;;;;;28.08;8.05;;;;;;;-0.89;100.00;100749.78;6083872;19;20483;-74
2023/12/01 05:53:06;;;;;;;17.35;8.35;;;;;;;-0.80;100.00;100743.78;6080711;19;20499;-74
2023/12/01 05:55:14;;;;;;;26.05;10.32;;;;;;;-0.83;100.00;100746.38;6079608;19;20010;-75
2023/12/01 05:57:23;;;;;;;19.40;8.82;;;;;;;-0.83;100.00;100748.94;6083286;19;20829;-75
2023/12/01 05:59:28;;;;;;;31.88;11.07;;;;;;;-0.83;100.00;100750.66;6078156;19;20032;-74
2023/12/01 06:01:36;;;;;;;30.52;9.80;;;;;;;-0.78;100.00;100748.97;6084141;19;20015;-74
2023/12/01 06:03:42;;;;;;;31.52;12.30;;;;;;;-0.78;100.00;100756.72;6080214;19;20044;-75
2023/12/01 06:05:48;;;;;;;31.63;10.85;;;;;;;-0.78;100.00;100757.56;6080476;19;20090;-75
2023/12/01 06:07:56;;;;;;;24.77;11.80;;;;;;;-0.73;100.00;100750.72;6082564;19;20047;-74
2023/12/01 06:09:58;;;;;;;36.78;10.38;;;;;;;-0.68;100.00;100756.75;6084276;19;20006;-75
2023/12/01 06:12:04;;;;;;;31.80;9.77;;;;;;;-0.68;100.00;100758.47;6083066;19;20006;-74
2023/12/01 06:14:09;;;;;;;30.15;9.93;;;;;;;-0.67;100.00;100760.19;6080833;19;20022;-75
2023/12/01 06:16:14;;;;;;;29.13;10.70;;;;;;;-0.68;100.00;100758.47;6082620;19;20013;-75
2023/12/01 06:18:22;;;;;;;29.75;13.25;;;;;;;-0.65;100.00;100752.47;6083832;19;20006;-75
2023/12/01 06:20:29;;;;;;;31.92;11.90;;;;;;;-0.68;100.00;100758.47;6082060;19;20491;-75
2023/12/01 06:22:32;;;;;;;26.05;12.32;;;;;;;-0.67;100.00;100757.59;6082096;19;20344;-74
2023/12/01 06:24:39;;;;;;;24.98;9.70;;;;;;;-0.66;100.00;100756.75;6082952;19;20019;-74
2023/12/01 06:26:44;;;;;;;27.63;10.25;;;;;;;-0.59;100.00;100765.38;6081483;19;20711;-74
2023/12/01 06:28:49;;;;;;;31.30;12.02;;;;;;;-0.60;100.00;100769.69;6082715;19;20006;-74
2023/12/01 06:30:54;;;;;;;28.75;11.05;;;;;;;-0.58;100.00;100775.72;6083636;19;20015;-74
2023/12/01 06:32:59;;;;;;;46.15;14.20;;;;;;;-0.59;100.00;100775.72;6082967;19;20010;-74
2023/12/01 06:35:07;;;;;;;23.88;11.98;;;;;;;-0.57;100.00;100776.59;6081256;19;20039;-75
2023/12/01 06:37:13;;;;;;;28.27;12.38;;;;;;;-0.57;100.00;100777.44;6079671;19;20470;-74
2023/12/01 06:39:19;;;;;;;24.95;10.40;;;;;;;-0.58;100.00;100770.56;6084246;19;20014;-76
2023/12/01 06:41:24;;;;;;;36.45;11.75;;;;;;;-0.57;100.00;100772.28;6084861;19;20043;-75
2023/12/01 06:43:30;;;;;;;37.58;12.88;;;;;;;-0.54;100.00;100774.88;6082686;19;20566;-76
2023/12/01 06:45:36;;;;;;;32.58;13.10;;;;;;;-0.51;100.00;100769.72;6082532;19;20718;-75
2023/12/01 06:47:42;;;;;;;24.58;9.57;;;;;;;-0.47;100.00;100763.72;6082176;19;20398;-76
2023/12/01 06:49:48;;;;;;;23.38;11.50;;;;;;;-0.49;100.00;100764.56;6082741;19;20026;-74
2023/12/01 06:51:58;;;;;;;34.53;11.93;;;;;;;-0.52;100.00;100770.59;6083456;19;20517;-74
2023/12/01 06:54:02;;;;;;;28.30;10.75;;;;;;;-0.53;100.00;100774.00;6076116;19;20526;-74
2023/12/01 06:56:09;;;;;;;30.75;11.23;;;;;;;-0.47;100.00;100768.03;6083386;19;20029;-74
2023/12/01 06:58:16;;;;;;;23.27;9.65;;;;;;;-0.49;100.00;100782.63;6083410;19;20042;-74
2023/12/01 07:00:29;;;;;;;18.05;7.90;;;;;;;-0.42;100.00;100791.25;6077710;19;20003;-75
2023/12/01 07:02:37;;;;;;;28.60;10.20;;;;;;;-0.48;100.00;100782.63;6082022;19;20006;-74
2023/12/01 07:04:45;;;;;;;33.70;11.82;;;;;;;-0.43;100.00;100781.78;6082105;19;20031;-75
2023/12/01 07:06:51;;;;;;;30.17;12.07;;;;;;;-0.36;100.00;100793.88;6080858;19;20523;-74
2023/12/01 07:08:59;;;;;;;25.15;12.05;;;;;;;-0.43;100.00;100787.81;6081898;19;20336;-75
2023/12/01 07:11:04;;;;;;;33.00;12.32;;;;;;;-0.47;100.00;100786.94;6084693;19;20017;-75
2023/12/01 07:13:11;;;;;;;27.77;11.38;;;;;;;-0.39;100.00;100796.44;6078222;19;20011;-75
2023/12/01 07:15:20;;;;;;;27.05;9.52;;;;;;;-0.39;100.00;100797.31;6086950;19;20031;-75
2023/12/01 07:17:25;;;;;;;25.52;11.35;;;;;;;-0.40;100.00;100797.28;6088874;19;20010;-74
2023/12/01 07:19:32;;;;;;;24.85;11.05;;;;;;;-0.34;100.00;100799.88;6082972;19;20396;-75
2023/12/01 07:21:38;;;;;;;29.23;10.43;;;;;;;-0.32;100.00;100804.19;6088290;19;20106;-73
2023/12/01 07:23:41;;;;;;;28.63;9.63;;;;;;;-0.30;100.00;100797.31;6088891;19;20011;-74
2023/12/01 07:25:49;;;;;;;27.60;12.07;;;;;;;-0.34;100.00;100802.47;6087742;19;20016;-75
2023/12/01 07:27:56;;;;;;;25.75;8.25;;;;;;;-0.25;100.00;100803.38;6084265;19;20016;-76
2023/12/01 07:30:04;;;;;;;23.88;10.25;;;;;;;-0.27;100.00;100806.81;6083820;19;20022;-75
2023/12/01 07:32:09;;;;;;;26.30;10.32;;;;;;;-0.31;100.00;100808.53;6085244;19;20123;-75
2023/12/01 07:34:17;;;;;;;29.38;10.40;;;;;;;-0.33;100.00;100806.78;6081632;19;20014;-74
2023/12/01 07:36:23;;;;;;;33.42;12.52;;;;;;;-0.32;100.00;100811.09;6086915;19;20017;-74
2023/12/01 07:38:39;;;;;;;32.13;11.07;;;;;;;-0.22;100.00;100805.09;6085650;19;20136;-75
2023/12/01 07:40:44;;;;;;;29.48;11.95;;;;;;;-0.24;100.00;100812.84;6082547;19;20031;-75
2023/12/01 07:42:54;;;;;;;29.88;12.05;;;;;;;-0.23;100.00;100804.25;6082856;19;20051;-76
2023/12/01 07:45:00;;;;;;;23.15;11.10;;;;;;;-0.18;100.00;100809.44;6084543;19;20007;-74
2023/12/01 07:47:08;;;;;;;29.52;10.30;;;;;;;-0.20;100.00;100815.44;6085082;19;20010;-74
2023/12/01 07:49:13;;;;;;;31.10;10.55;;;;;;;-0.25;100.00;100818.00;6085073;19;20343;-76
2023/12/01 07:51:19;;;;;;;26.88;10.48;;;;;;;-0.19;100.00;100817.16;6085108;19;20179;-76
2023/12/01 07:53:24;;;;;;;31.90;10.63;;;;;;;-0.18;100.00;100813.72;6080790;19;20019;-73
2023/12/01 07:55:30;;;;;;;32.95;10.68;;;;;;;-0.13;100.00;100819.75;6079615;19;20094;-74
2023/12/01 07:57:35;;;;;;;31.00;11.50;;;;;;;-0.16;100.00;100827.50;6080738;19;20014;-74
2023/12/01 07:59:42;;;;;;;27.08;10.85;;;;;;;-0.13;100.00;100818.06;6075941;19;20006;-75
2023/12/01 08:01:45;;;;;;;30.42;11.98;;;;;;;-0.08;100.00;100816.34;6082106;19;20043;-75
2023/12/01 08:03:50;;;;;;;31.17;9.82;;;;;;;-0.07;100.00;100819.78;6085482;19;20443;-74
2023/12/01 08:05:55;;;;;;;28.77;11.73;;;;;;;-0.09;100.00;100822.34;6085597;19;20090;-75
2023/12/01 08:08:00;;;;;;;28.25;8.73;;;;;;;-0.08;100.00;100826.69;6083187;19;20043;-75
2023/12/01 08:10:06;;;;;;;27.55;10.85;;;;;;;-0.07;100.00;100830.97;6083888;19;20018;-74
2023/12/01 08:12:19;;;;;;;25.40;12.30;;;;;;;-0.07;100.00;100827.53;6080145;19;20002;-75
2023/12/01 08:14:25;;;;;;;24.50;10.25;;;;;;;-0.04;100.00;100820.66;6081376;19;20630;-76
2023/12/01 08:16:32;;;;;;;26.13;10.25;;;;;;;-0.01;100.00;100824.97;6085036;19;20024;-75
2023/12/01 08:18:38;;;;;;;30.52;13.18;;;;;;;-0.03;100.00;100824.09;6081915;19;20022;-75
2023/12/01 08:20:46;;;;;;;27.33;9.27;;;;;;;-0.02;100.00;100826.69;6084398;19;20511;-75
2023/12/01 08:22:52;;;;;;;24.15;10.82;;;;;;;0.01;100.00;100823.25;6085889;19;20066;-73
2023/12/01 08:24:58;;;;;;;23.92;9.07;;;;;;;0.04;100.00;100825.84;6086726;19;20022;-75
2023/12/01 08:27:04;;;;;;;24.77;9.25;;;;;;;0.01;100.00;100819.81;6085416;19;20007;-74
2023/12/01 08:29:09;;;;;;;27.70;9.45;;;;;;;0.07;100.00;100828.41;6088031;19;20006;-75
2023/12/01 08:31:16;;;;;;;23.02;11.23;;;;;;;0.11;100.00;100830.16;6086147;19;19998;-76
2023/12/01 08:33:25;;;;;;;26.63;9.68;;;;;;;0.09;100.00;100831.88;6085171;19;20800;-75
2023/12/01 08:35:30;;;;;;;25.73;12.15;;;;;;;0.10;100.00;100827.56;6084696;19;20126;-74
2023/12/01 08:37:36;;;;;;;25.25;8.75;;;;;;;0.16;100.00;100828.44;6084146;19;20587;-75
2023/12/01 08:39:43;;;;;;;22.17;9.10;;;;;;;0.16;100.00;100832.75;6085293;19;21203;-76
2023/12/01 08:41:53;;;;;;;24.42;10.10;;;;;;;0.20;100.00;100842.22;6078303;19;20120;-75
2023/12/01 08:44:01;;;;;;;28.67;13.85;;;;;;;0.30;100.00;100837.94;6082948;19;23090;-75
2023/12/01 08:46:07;;;;;;;23.75;11.82;;;;;;;0.29;100.00;100839.69;6084263;19;20011;-75
2023/12/01 08:48:12;;;;;;;35.15;11.25;;;;;;;0.31;100.00;100842.25;6082914;19;20425;-75
2023/12/01 08:50:19;;;;;;;24.25;11.48;;;;;;;0.27;100.00;100843.13;6080423;19;20013;-75
2023/12/01 08:52:26;;;;;;;36.90;15.20;;;;;;;0.29;100.00;100839.69;6078768;19;20002;-74
2023/12/01 08:54:31;;;;;;;21.52;9.13;;;;;;;0.31;100.00;100837.94;6081258;19;20011;-74
2023/12/01 08:56:36;;;;;;;24.80;11.50;;;;;;;0.38;100.00;100839.66;6079086;19;20006;-74
2023/12/01 08:58:43;;;;;;;27.83;10.93;;;;;;;0.39;100.00;100843.97;6080575;19;20014;-74
2023/12/01 09:00:49;;;;;;;26.83;10.13;;;;;;;0.33;100.00;100846.56;6079131;19;20017;-75
2023/12/01 09:02:55;;;;;;;22.55;9.60;;;;;;;0.36;100.00;100848.28;6083667;19;20566;-75
2023/12/01 09:04:57;;;;;;;23.70;9.75;;;;;;;0.40;100.00;100850.03;6081661;19;20006;-75
2023/12/01 09:07:05;;;;;;;30.83;11.45;;;;;;;0.40;100.00;100845.72;6079333;19;20006;-74
2023/12/01 09:09:14;;;;;;;22.17;9.15;;;;;;;0.40;100.00;100853.47;6079186;19;20102;-74
2023/12/01 09:11:20;;;;;;;24.80;10.38;;;;;;;0.43;100.00;100856.06;6080810;19;20387;-74
2023/12/01 09:13:25;;;;;;;29.85;9.18;;;;;;;0.42;100.00;100853.44;6080606;19;20038;-76
2023/12/01 09:15:30;;;;;;;25.55;9.00;;;;;;;0.41;100.00;100860.34;6080799;19;20013;-74
2023/12/01 09:17:35;;;;;;;21.38;10.57;;;;;;;0.45;100.00;100858.66;6081051;19;20586;-76
2023/12/01 09:19:40;;;;;;;24.10;8.85;;;;;;;0.52;100.00;100862.09;6082252;19;20014;-76
2023/12/01 09:21:45;;;;;;;25.08;9.52;;;;;;;0.60;100.00;100868.13;6080277;19;20006;-75
2023/12/01 09:23:52;;;;;;;30.00;8.57;;;;;;;0.61;100.00;100869.88;6079061;19;20006;-75
2023/12/01 09:26:00;;;;;;;23.92;8.63;;;;;;;0.65;100.00;100867.25;6081720;19;20483;-74
2023/12/01 09:28:06;;;;;;;25.55;10.75;;;;;;;0.58;100.00;100869.84;6081435;19;20042;-75